.
WxDataArchive / Data Records for 2008-10-05
2008-10-04 October 2008 2008-10-06

Data Records for Sunday, 05 October 2008

Time	Temp	Chill	HIndex	Humid	Dewpt	 Wind 	HiWind	WindDir	Rain 	Barom 
-----	----	-----	------	-----	-----	------	------	-------	-----	----- 
00:00	39.9	39.9	39.9	86	36.1	0	0	---	0.00	30.219 
00:05	39.6	39.6	39.6	86	35.8	0	0	---	0.00	30.220 
00:10	39.6	39.6	39.6	87	36.1	0	0	---	0.00	30.222 
00:15	39.5	39.5	39.5	87	36.0	0	0	---	0.00	30.221 
00:20	39.5	39.5	39.5	87	36.0	0	0	---	0.00	30.224 
00:25	39.3	39.3	39.3	87	35.8	0	0	---	0.00	30.223 
00:30	39.3	39.3	39.3	88	36.0	0	0	---	0.00	30.225 
00:35	39.2	39.2	39.2	88	35.9	0	0	---	0.00	30.226 
00:40	39.2	39.2	39.2	88	35.9	0	0	---	0.00	30.227 
00:45	39.2	39.2	39.2	88	35.9	0	0	---	0.00	30.227 
00:50	39.1	39.1	39.1	88	35.9	0	0	---	0.00	30.227 
00:55	39.1	39.1	39.1	88	35.9	0	0	---	0.00	30.229 
01:00	39.1	39.1	39.1	88	35.9	0	0	---	0.00	30.229 
01:05	38.9	38.9	38.9	88	35.7	0	0	---	0.00	30.229 
01:10	38.9	38.9	38.9	88	35.7	0	0	---	0.00	30.229 
01:15	38.8	38.8	38.8	88	35.6	0	0	---	0.00	30.230 
01:20	38.6	38.6	38.6	88	35.4	0	0	---	0.00	30.232 
01:25	38.6	38.6	38.6	89	35.6	0	0	---	0.00	30.231 
01:30	38.5	38.5	38.5	89	35.5	0	0	---	0.00	30.230 
01:35	38.3	38.3	38.3	89	35.3	0	0	---	0.00	30.234 
01:40	38.3	38.3	38.3	89	35.3	0	0	---	0.00	30.236 
01:45	38.3	38.3	38.3	89	35.3	0	0	---	0.00	30.240 
01:50	38.2	38.2	38.2	90	35.5	0	0	---	0.00	30.241 
01:55	38.2	38.2	38.2	89	35.2	0	0	---	0.00	30.238 
02:00	38.0	38.0	38.0	90	35.3	0	0	---	0.00	30.233 
02:05	37.9	37.9	37.9	90	35.2	0	0	---	0.00	30.232 
02:10	37.9	37.9	37.9	90	35.2	0	0	---	0.00	30.234 
02:15	37.9	37.9	37.9	90	35.2	0	0	---	0.00	30.236 
02:20	37.8	37.8	37.8	90	35.1	0	0	---	0.00	30.238 
02:25	37.8	37.8	37.8	91	35.4	0	0	---	0.00	30.240 
02:30	37.8	37.8	37.8	91	35.4	0	0	---	0.00	30.236 
02:35	37.6	37.6	37.6	91	35.2	0	0	---	0.00	30.233 
02:40	37.6	37.6	37.6	91	35.2	0	0	---	0.00	30.236 
02:45	37.5	37.5	37.5	91	35.1	0	0	---	0.00	30.235 
02:50	37.3	37.3	37.3	91	34.9	0	0	---	0.00	30.234 
02:55	37.3	37.3	37.3	91	34.9	0	0	---	0.00	30.237 
03:00	37.2	37.2	37.2	91	34.8	0	0	---	0.00	30.235 
03:05	37.2	37.2	37.2	92	35.1	0	0	---	0.00	30.233 
03:10	37.2	37.2	37.2	92	35.1	0	0	---	0.00	30.233 
03:15	37.0	37.0	37.0	92	34.9	0	0	---	0.00	30.235 
03:20	36.9	36.9	36.9	92	34.8	0	0	---	0.00	30.235 
03:25	36.9	36.9	36.9	92	34.8	0	0	---	0.00	30.235 
03:30	36.8	36.8	36.8	92	34.7	0	0	---	0.00	30.235 
03:35	36.6	36.6	36.6	92	34.5	0	0	---	0.00	30.236 
03:40	36.6	36.6	36.6	92	34.5	0	0	---	0.00	30.236 
03:45	36.6	36.6	36.6	92	34.5	0	0	---	0.00	30.237 
03:50	36.6	36.6	36.6	92	34.5	0	0	---	0.00	30.234 
03:55	36.6	36.6	36.6	92	34.5	0	0	---	0.00	30.235 
04:00	36.5	36.5	36.5	92	34.4	0	0	---	0.00	30.237 
04:05	36.5	36.5	36.5	92	34.4	0	0	---	0.00	30.240 
04:10	36.3	36.3	36.3	93	34.5	0	0	---	0.00	30.242 
04:15	36.3	36.3	36.3	93	34.5	0	0	---	0.00	30.245 
04:20	36.3	36.3	36.3	93	34.5	0	0	---	0.00	30.246 
04:25	36.2	36.2	36.2	93	34.4	0	0	---	0.00	30.247 
04:30	36.2	36.2	36.2	93	34.4	0	0	---	0.00	30.248 
04:35	36.2	36.2	36.2	93	34.4	0	0	---	0.00	30.248 
04:40	36.2	36.2	36.2	93	34.4	0	0	---	0.00	30.250 
04:45	36.0	36.0	36.0	93	34.2	0	0	---	0.00	30.249 
04:50	36.0	36.0	36.0	93	34.2	0	0	---	0.00	30.251 
04:55	36.0	36.0	36.0	93	34.2	0	0	---	0.00	30.250 
05:00	35.9	35.9	35.9	93	34.1	0	0	---	0.00	30.249 
05:05	35.9	35.9	35.9	93	34.1	0	0	---	0.00	30.253 
05:10	35.8	35.8	35.8	93	34.0	0	0	---	0.00	30.254 
05:15	35.8	35.8	35.8	93	34.0	0	0	---	0.00	30.251 
05:20	35.8	35.8	35.8	93	34.0	0	0	---	0.00	30.254 
05:25	35.6	35.6	35.6	94	34.0	0	0	---	0.00	30.256 
05:30	35.6	35.6	35.6	94	34.0	0	0	---	0.00	30.260 
05:35	35.6	35.6	35.6	94	34.0	0	0	---	0.00	30.262 
05:40	35.5	35.5	35.5	94	33.9	0	0	---	0.00	30.264 
05:45	35.5	35.5	35.5	94	33.9	0	0	---	0.00	30.264 
05:50	35.5	35.5	35.5	94	33.9	0	0	---	0.00	30.265 
05:55	35.3	35.3	35.3	94	33.7	0	0	---	0.00	30.266 
06:00	35.3	35.3	35.3	94	33.7	0	0	---	0.00	30.267 
06:05	35.3	35.3	35.3	94	33.7	0	0	---	0.00	30.273 
06:10	35.3	35.3	35.3	94	33.7	0	0	---	0.00	30.274 
06:15	35.3	35.3	35.3	94	33.7	0	0	---	0.00	30.273 
06:20	35.2	35.2	35.2	94	33.6	0	0	---	0.00	30.275 
06:25	35.2	35.2	35.2	94	33.6	0	0	---	0.00	30.277 
06:30	35.2	35.2	35.2	94	33.6	0	0	---	0.00	30.278 
06:35	35.2	35.2	35.2	94	33.6	0	0	---	0.00	30.279 
06:40	35.3	35.3	35.3	94	33.7	0	0	---	0.00	30.285 
06:45	35.3	35.3	35.3	94	33.7	0	0	---	0.00	30.286 
06:50	35.2	35.2	35.2	94	33.6	0	0	---	0.00	30.286 
06:55	35.3	35.3	35.3	94	33.7	0	0	---	0.00	30.288 
07:00	35.3	35.3	35.3	94	33.7	0	0	---	0.00	30.288 
07:05	35.3	35.3	35.3	94	33.7	0	0	---	0.00	30.291 
07:10	35.5	35.5	35.5	95	34.2	0	0	---	0.00	30.290 
07:15	35.8	35.8	35.8	95	34.5	0	0	---	0.00	30.297 
07:20	35.9	35.9	35.9	95	34.6	0	0	---	0.00	30.301 
07:25	36.2	36.2	36.2	95	34.9	0	0	---	0.00	30.305 
07:30	36.5	36.5	36.5	95	35.2	0	0	---	0.00	30.305 
07:35	36.8	36.8	36.8	95	35.5	0	0	---	0.00	30.306 
07:40	37.2	37.2	37.2	95	35.9	0	0	---	0.00	30.307 
07:45	37.9	37.9	37.9	96	36.9	0	2	315	0.00	30.307 
07:50	38.8	38.8	38.8	96	37.8	0	1	315	0.00	30.307 
07:55	39.3	39.3	39.3	96	38.3	0	0	---	0.00	30.306 
08:00	39.9	39.9	39.9	96	38.9	0	1	315	0.00	30.303 
08:05	40.6	40.6	40.6	96	39.5	0	3	112	0.00	30.305 
08:10	41.2	41.2	41.2	96	40.1	0	3	112	0.00	30.307 
08:15	41.8	41.8	41.8	96	40.7	0	1	112	0.00	30.303 
08:20	42.2	42.2	42.2	95	40.9	0	1	112	0.00	30.304 
08:25	42.6	42.6	42.6	94	41.0	0	1	112	0.00	30.306 
08:30	43.1	43.1	43.1	93	41.2	0	1	112	0.00	30.308 
08:35	43.6	43.6	43.6	92	41.4	0	1	112	0.00	30.308 
08:40	44.2	44.2	44.2	91	41.7	0	1	112	0.00	30.306 
08:45	44.8	44.8	44.8	90	42.0	0	1	112	0.00	30.307 
08:50	45.5	45.5	45.5	88	42.2	0	1	112	0.00	30.305 
08:55	46.1	46.1	46.1	87	42.4	0	1	112	0.00	30.302 
09:00	47.0	47.0	47.0	84	42.4	0	2	112	0.00	30.306 
09:05	48.0	48.0	48.0	81	42.5	1	2	112	0.00	30.307 
09:10	49.1	49.1	49.1	79	42.9	1	2	112	0.00	30.307 
09:15	49.9	49.9	49.9	77	43.0	1	2	112	0.00	30.301 
09:20	50.8	50.8	50.8	76	43.5	1	3	112	0.00	30.300 
09:25	51.7	51.7	51.7	72	43.0	1	3	112	0.00	30.298 
09:30	52.3	52.3	52.3	71	43.2	1	3	90	0.00	30.294 
09:35	52.6	52.6	52.6	69	42.7	2	3	90	0.00	30.294 
09:40	52.9	52.9	52.9	69	43.0	1	3	90	0.00	30.295 
09:45	53.6	53.6	53.6	68	43.3	0	3	112	0.00	30.293 
09:50	54.4	54.4	54.4	67	43.7	1	4	112	0.00	30.293 
09:55	55.0	55.0	55.0	66	43.9	0	3	112	0.00	30.293 
10:00	55.6	55.6	55.6	64	43.6	1	2	112	0.00	30.293 
10:05	55.9	55.9	55.9	65	44.3	1	4	112	0.00	30.292 
10:10	56.2	56.2	56.2	65	44.6	0	3	112	0.00	30.292 
10:15	56.3	56.3	56.3	61	43.0	1	4	90	0.00	30.292 
10:20	56.5	56.5	56.5	62	43.6	1	3	90	0.00	30.289 
10:25	56.9	56.9	56.9	62	44.0	1	5	90	0.00	30.285 
10:30	57.5	57.5	57.5	61	44.2	1	4	90	0.00	30.281 
10:35	58.0	58.0	58.0	60	44.2	2	4	90	0.00	30.277 
10:40	58.3	58.3	58.3	58	43.6	2	4	90	0.00	30.276 
10:45	58.7	58.7	58.7	59	44.4	1	4	90	0.00	30.273 
10:50	59.2	59.2	59.2	55	43.0	1	6	90	0.00	30.272 
10:55	59.5	59.5	59.5	57	44.3	1	3	90	0.00	30.271 
11:00	60.1	60.1	60.1	54	43.4	2	5	90	0.00	30.272 
11:05	60.4	60.4	60.4	53	43.2	1	3	68	0.00	30.271 
11:10	60.7	60.7	60.7	53	43.5	1	3	68	0.00	30.269 
11:15	61.0	61.0	61.0	51	42.7	2	6	90	0.00	30.264 
11:20	61.2	61.2	61.2	52	43.4	2	5	90	0.00	30.267 
11:25	61.2	61.2	61.2	50	42.4	1	4	112	0.00	30.263 
11:30	61.6	61.6	61.6	47	41.2	1	5	90	0.00	30.261 
11:35	62.1	62.1	62.1	46	41.1	1	3	135	0.00	30.261 
11:40	62.3	62.3	62.3	45	40.7	2	6	90	0.00	30.258 
11:45	62.3	62.3	62.3	46	41.3	2	6	90	0.00	30.257 
11:50	62.3	62.3	62.3	43	39.5	2	4	90	0.00	30.256 
11:55	62.4	62.4	62.4	47	41.9	2	5	68	0.00	30.254 
12:00	62.9	62.9	62.9	45	41.2	2	4	90	0.00	30.254 
12:05	63.2	63.2	63.2	41	39.1	2	5	112	0.00	30.250 
12:10	63.1	63.1	63.1	40	38.4	2	5	90	0.00	30.252 
12:15	63.1	63.1	63.1	43	40.2	1	4	90	0.00	30.247 
12:20	63.2	63.2	63.2	42	39.7	2	5	112	0.00	30.246 
12:25	63.4	63.4	63.4	40	38.7	2	4	90	0.00	30.245 
12:30	63.5	63.5	63.5	41	39.4	2	5	90	0.00	30.241 
12:35	63.9	63.9	63.9	41	39.7	2	4	68	0.00	30.242 
12:40	64.0	64.0	64.0	39	38.5	1	4	90	0.00	30.238 
12:45	64.3	64.3	64.3	40	39.5	0	2	90	0.00	30.234 
12:50	64.7	64.7	64.7	35	36.4	1	4	90	0.00	30.231 
12:55	64.7	64.7	64.7	36	37.1	1	4	90	0.00	30.230 
13:00	64.8	64.8	64.8	39	39.3	1	5	90	0.00	30.232 
13:05	65.0	65.0	65.0	35	36.7	1	5	90	0.00	30.235 
13:10	65.2	65.2	65.2	36	37.6	2	6	90	0.00	30.230 
13:15	65.2	65.2	65.2	37	38.3	2	5	90	0.00	30.224 
13:20	64.8	64.8	64.8	34	35.8	2	5	90	0.00	30.224 
13:25	64.7	64.7	64.7	33	34.9	1	3	68	0.00	30.225 
13:30	64.7	64.7	64.7	35	36.4	1	3	90	0.00	30.225 
13:35	64.7	64.7	64.7	35	36.4	0	1	90	0.00	30.223 
13:40	64.7	64.7	64.7	33	34.9	1	2	90	0.00	30.222 
13:45	64.7	64.7	64.7	31	33.4	0	2	90	0.00	30.219 
13:50	65.0	65.0	65.0	35	36.7	0	1	90	0.00	30.217 
13:55	65.3	65.3	65.3	32	34.7	0	1	90	0.00	30.216 
14:00	65.5	65.5	65.5	31	34.1	0	1	90	0.00	30.212 
14:05	65.6	65.6	65.6	31	34.1	0	1	90	0.00	30.213 
14:10	65.6	65.6	65.6	33	35.7	0	2	90	0.00	30.210 
14:15	65.6	65.6	65.6	33	35.7	1	4	68	0.00	30.209 
14:20	65.5	65.5	65.5	31	34.1	0	2	68	0.00	30.210 
14:25	65.5	65.5	65.5	31	34.1	0	1	68	0.00	30.210 
14:30	65.6	65.6	65.6	30	33.3	0	1	68	0.00	30.210 
14:35	65.6	65.6	65.6	31	34.1	0	0	---	0.00	30.212 
14:40	65.5	65.5	65.5	31	34.1	0	0	---	0.00	30.216 
14:45	65.5	65.5	65.5	34	36.4	0	0	---	0.00	30.212 
14:50	65.2	65.2	65.2	32	34.6	0	0	---	0.00	30.211 
14:55	65.0	65.0	65.0	39	39.4	0	0	---	0.00	30.210 
15:00	64.8	64.8	64.8	36	37.2	0	0	---	0.00	30.209 
15:05	64.8	64.8	64.8	40	39.9	0	1	68	0.00	30.209 
15:10	64.7	64.7	64.7	38	38.5	0	0	---	0.00	30.208 
15:15	64.7	64.7	64.7	39	39.2	0	1	68	0.00	30.208 
15:20	64.5	64.5	64.5	38	38.3	0	1	68	0.00	30.205 
15:25	64.2	64.2	64.2	39	38.7	0	0	---	0.00	30.209 
15:30	63.9	63.9	63.9	41	39.7	0	0	---	0.00	30.209 
15:35	63.7	63.7	63.7	42	40.2	0	1	68	0.00	30.206 
15:40	63.4	63.4	63.4	43	40.5	0	1	68	0.00	30.200 
15:45	63.2	63.2	63.2	42	39.7	0	0	---	0.00	30.198 
15:50	63.2	63.2	63.2	45	41.5	0	0	---	0.00	30.196 
15:55	62.9	62.9	62.9	43	40.1	0	0	---	0.00	30.202 
16:00	62.7	62.7	62.7	45	41.0	0	0	---	0.00	30.204 
16:05	62.7	62.7	62.7	46	41.6	0	0	---	0.00	30.204 
16:10	62.6	62.6	62.6	46	41.5	0	0	---	0.00	30.204 
16:15	62.4	62.4	62.4	45	40.8	0	0	---	0.00	30.207 
16:20	62.3	62.3	62.3	47	41.8	0	0	---	0.00	30.206 
16:25	62.3	62.3	62.3	47	41.8	0	0	---	0.00	30.207 
16:30	62.4	62.4	62.4	49	43.0	0	0	---	0.00	30.208 
16:35	62.4	62.4	62.4	46	41.3	0	0	---	0.00	30.208 
16:40	62.6	62.6	62.6	49	43.2	0	0	---	0.00	30.206 
16:45	62.4	62.4	62.4	48	42.4	0	0	---	0.00	30.208 
16:50	62.4	62.4	62.4	49	43.0	0	0	---	0.00	30.210 
16:55	62.3	62.3	62.3	50	43.4	0	0	---	0.00	30.211 
17:00	62.3	62.3	62.3	50	43.4	0	0	---	0.00	30.212 
17:05	62.4	62.4	62.4	48	42.4	0	0	---	0.00	30.215 
17:10	62.6	62.6	62.6	49	43.2	0	1	68	0.00	30.214 
17:15	62.6	62.6	62.6	48	42.6	0	1	68	0.00	30.212 
17:20	62.6	62.6	62.6	49	43.2	0	0	---	0.00	30.213 
17:25	62.4	62.4	62.4	48	42.4	0	0	---	0.00	30.213 
17:30	62.3	62.3	62.3	49	42.9	0	0	---	0.00	30.214 
17:35	62.0	62.0	62.0	50	43.1	0	1	68	0.00	30.213 
17:40	61.8	61.8	61.8	47	41.4	0	1	68	0.00	30.213 
17:45	61.5	61.5	61.5	47	41.1	0	1	68	0.00	30.210 
17:50	61.3	61.3	61.3	48	41.4	0	1	68	0.00	30.203 
17:55	61.2	61.2	61.2	47	40.8	0	1	68	0.00	30.197 
18:00	61.2	61.2	61.2	48	41.3	0	1	68	0.00	30.198 
18:05	61.0	61.0	61.0	49	41.7	0	1	68	0.00	30.207 
18:10	60.7	60.7	60.7	49	41.4	0	0	---	0.00	30.208 
18:15	60.5	60.5	60.5	50	41.8	0	1	68	0.00	30.210 
18:20	60.1	60.1	60.1	50	41.4	0	0	---	0.00	30.211 
18:25	59.8	59.8	59.8	51	41.6	0	0	---	0.00	30.211 
18:30	59.5	59.5	59.5	53	42.4	0	0	---	0.00	30.211 
18:35	59.2	59.2	59.2	53	42.1	0	0	---	0.00	30.209 
18:40	59.0	59.0	59.0	52	41.4	0	1	68	0.00	30.205 
18:45	59.0	59.0	59.0	54	42.4	0	0	---	0.00	30.205 
18:50	58.9	58.9	58.9	54	42.3	0	0	---	0.00	30.208 
18:55	58.6	58.6	58.6	54	42.0	0	0	---	0.00	30.207 
19:00	58.3	58.3	58.3	54	41.7	0	0	---	0.00	30.210 
19:05	58.0	58.0	58.0	55	41.9	0	0	---	0.00	30.201 
19:10	57.6	57.6	57.6	56	42.0	0	0	---	0.00	30.198 
19:15	57.3	57.3	57.3	56	41.7	0	0	---	0.00	30.198 
19:20	57.0	57.0	57.0	56	41.5	0	0	---	0.00	30.198 
19:25	56.6	56.6	56.6	58	42.0	0	0	---	0.00	30.204 
19:30	56.2	56.2	56.2	58	41.6	0	0	---	0.00	30.208 
19:35	55.9	55.9	55.9	58	41.3	0	0	---	0.00	30.207 
19:40	55.6	55.6	55.6	59	41.5	0	0	---	0.00	30.207 
19:45	55.3	55.3	55.3	60	41.7	0	0	---	0.00	30.210 
19:50	55.1	55.1	55.1	61	41.9	0	0	---	0.00	30.210 
19:55	55.1	55.1	55.1	62	42.3	0	1	68	0.00	30.204 
20:00	55.1	55.1	55.1	60	41.5	0	0	---	0.00	30.200 
20:05	55.4	55.4	55.4	58	40.9	0	1	68	0.00	30.192 
20:10	55.6	55.6	55.6	58	41.1	0	0	---	0.00	30.191 
20:15	55.6	55.6	55.6	58	41.1	0	0	---	0.00	30.192 
20:20	55.3	55.3	55.3	58	40.8	0	0	---	0.00	30.193 
20:25	55.1	55.1	55.1	58	40.6	0	0	---	0.00	30.193 
20:30	54.7	54.7	54.7	59	40.7	0	0	---	0.00	30.193 
20:35	54.5	54.5	54.5	60	40.9	0	0	---	0.00	30.193 
20:40	54.2	54.2	54.2	62	41.5	0	0	---	0.00	30.199 
20:45	53.9	53.9	53.9	62	41.2	0	0	---	0.00	30.201 
20:50	53.6	53.6	53.6	62	40.9	0	0	---	0.00	30.201 
20:55	53.5	53.5	53.5	62	40.8	0	0	---	0.00	30.201 
21:00	53.3	53.3	53.3	62	40.6	0	0	---	0.00	30.197 
21:05	53.2	53.2	53.2	63	40.9	0	0	---	0.00	30.192 
21:10	52.9	52.9	52.9	63	40.7	0	0	---	0.00	30.198 
21:15	52.8	52.8	52.8	62	40.1	0	1	68	0.00	30.199 
21:20	52.9	52.9	52.9	62	40.2	0	2	68	0.00	30.198 
21:25	53.1	53.1	53.1	61	40.0	0	2	68	0.00	30.198 
21:30	53.2	53.2	53.2	61	40.1	0	1	68	0.00	30.199 
21:35	53.2	53.2	53.2	61	40.1	0	1	68	0.00	30.202 
21:40	53.1	53.1	53.1	62	40.4	0	0	---	0.00	30.204 
21:45	52.8	52.8	52.8	63	40.6	0	0	---	0.00	30.205 
21:50	52.5	52.5	52.5	64	40.7	0	0	---	0.00	30.206 
21:55	52.2	52.2	52.2	65	40.8	0	0	---	0.00	30.209 
22:00	51.9	51.9	51.9	65	40.5	0	0	---	0.00	30.216 
22:05	51.6	51.6	51.6	66	40.6	0	0	---	0.00	30.214 
22:10	51.3	51.3	51.3	67	40.7	0	0	---	0.00	30.218 
22:15	51.1	51.1	51.1	68	40.9	0	1	68	0.00	30.220 
22:20	51.3	51.3	51.3	69	41.5	0	1	68	0.00	30.224 
22:25	51.6	51.6	51.6	69	41.8	0	1	68	0.00	30.224 
22:30	51.9	51.9	51.9	70	42.4	0	2	68	0.00	30.221 
22:35	52.2	52.2	52.2	70	42.7	0	1	68	0.00	30.224 
22:40	52.5	52.5	52.5	71	43.4	0	0	---	0.00	30.227 
22:45	52.6	52.6	52.6	71	43.5	0	1	68	0.00	30.231 
22:50	52.9	52.9	52.9	71	43.8	0	2	90	0.00	30.228 
22:55	53.2	53.2	53.2	71	44.0	0	2	90	0.00	30.229 
23:00	53.5	53.5	53.5	71	44.3	0	3	112	0.00	30.232 
23:05	53.6	53.6	53.6	71	44.4	1	3	135	0.00	30.233 
23:10	53.8	53.8	53.8	71	44.6	1	4	112	0.00	30.229 
23:15	53.8	53.8	53.8	71	44.6	1	4	112	0.00	30.232 
23:20	53.8	53.8	53.8	71	44.6	1	4	112	0.00	30.229 
23:25	53.8	53.8	53.8	71	44.6	1	5	112	0.00	30.227 
23:30	53.6	53.6	53.6	71	44.4	1	2	112	0.00	30.228 
23:35	53.5	53.5	53.5	72	44.7	1	4	112	0.00	30.228 
23:40	53.2	53.2	53.2	73	44.8	1	3	112	0.00	30.225 
23:45	52.9	52.9	52.9	73	44.5	1	3	112	0.00	30.219 
23:50	52.8	52.8	52.8	74	44.7	1	2	112	0.00	30.216 
23:55	52.5	52.5	52.5	74	44.5	0	2	112	0.00	30.213 

CoCoRaHS
IN-AL-39
A2 Web Hosting
Creative Commons License
GoDaddy
Look for:

loaded 2017-10-16 18:21:05 • last modified 2010-11-18 10:43:29
Privacy PolicyDisclaimer
• wx.awcolley.com is powered by PmWiki v.2002016 •
• all content (unless otherwise noted) © 2017 A W Colley